createdAt,value
2019-04-10T04:42:58.430Z,53.97
2019-04-10T04:45:29.924Z,51.17
2019-04-10T04:47:59.750Z,55.07
2019-04-10T04:50:29.329Z,49.10
2019-04-10T04:53:02.346Z,52.93
2019-04-10T04:55:33.098Z,52.67
2019-04-10T04:58:02.718Z,51.23
2019-04-10T05:00:32.034Z,56.37
2019-04-10T05:03:01.907Z,53.83
2019-04-10T05:05:31.359Z,53.23
2019-04-10T05:08:02.920Z,51.87
2019-04-10T05:10:31.719Z,54.33
2019-04-10T05:13:01.910Z,50.93
2019-04-10T05:15:31.462Z,53.10
2019-04-10T05:18:01.900Z,53.47
2019-04-10T05:20:41.467Z,48.80
2019-04-10T05:23:04.061Z,53.07
2019-04-10T05:25:34.510Z,49.60
2019-04-10T05:28:04.407Z,54.03
2019-04-10T05:30:33.725Z,50.27
2019-04-10T05:33:04.079Z,50.20
2019-04-10T05:35:37.719Z,47.07
2019-04-10T05:38:07.956Z,45.93
2019-04-10T05:40:37.943Z,50.40
2019-04-10T05:43:11.404Z,46.07
2019-04-10T05:45:40.933Z,50.53
2019-04-10T05:48:11.094Z,47.57
2019-04-10T05:50:53.089Z,45.43
2019-04-10T05:53:12.559Z,47.23
2019-04-10T05:55:42.004Z,44.13
2019-04-10T05:58:11.474Z,43.43
2019-04-10T06:00:40.992Z,44.40
2019-04-10T06:03:14.476Z,46.47
2019-04-10T06:05:44.470Z,47.37
2019-04-10T06:08:18.357Z,44.03
2019-04-10T06:10:47.864Z,47.50
2019-04-10T06:13:17.254Z,45.60
2019-04-10T06:15:49.022Z,53.03
2019-04-10T06:18:20.855Z,41.90
2019-04-10T06:20:50.418Z,43.37
2019-04-10T06:23:20.128Z,47.90
2019-04-10T06:25:49.911Z,43.37
2019-04-10T06:28:19.233Z,44.53
2019-04-10T06:30:48.564Z,46.20
2019-04-10T06:33:18.027Z,42.50
2019-04-10T06:35:47.412Z,48.90
2019-04-10T06:38:16.938Z,45.60
2019-04-10T06:40:48.255Z,46.83
2019-04-10T06:43:17.527Z,43.77
2019-04-10T06:45:46.797Z,46.90
2019-04-10T06:48:19.296Z,45.70
2019-04-10T06:50:49.376Z,46.17
2019-04-10T06:53:18.897Z,42.13
2019-04-10T06:55:52.405Z,42.87
2019-04-10T06:58:21.977Z,46.17
2019-04-10T07:00:53.253Z,44.77
2019-04-10T07:03:23.135Z,45.03
2019-04-10T07:06:03.623Z,44.13
2019-04-10T07:08:29.722Z,45.27
2019-04-10T07:11:05.082Z,42.77
2019-04-10T07:13:30.552Z,43.57
2019-04-10T07:16:00.336Z,44.47
2019-04-10T07:18:29.521Z,45.65
2019-04-10T07:21:01.514Z,41.57
2019-04-10T07:23:31.861Z,42.07
2019-04-10T07:26:01.740Z,41.07
2019-04-10T07:28:36.652Z,38.50
2019-04-10T07:31:08.492Z,39.27
2019-04-10T07:33:37.077Z,39.43
2019-04-10T07:36:10.931Z,40.63
2019-04-10T07:38:37.480Z,39.43
2019-04-10T07:41:13.950Z,38.53
2019-04-10T07:43:38.647Z,38.83
2019-04-10T07:46:08.149Z,38.57
2019-04-10T07:48:38.763Z,36.80
2019-04-10T07:51:09.015Z,44.87
2019-04-10T07:53:39.417Z,43.47
2019-04-10T07:56:14.876Z,40.37
2019-04-10T07:58:41.900Z,42.33
2019-04-10T08:01:12.014Z,39.50
2019-04-10T08:03:41.708Z,44.40
2019-04-10T08:06:11.135Z,41.70
2019-04-10T08:08:40.514Z,40.93
2019-04-10T08:11:09.830Z,42.47
2019-04-10T08:13:39.097Z,40.13
2019-04-10T08:16:08.331Z,40.87
2019-04-10T08:18:39.438Z,43.87
2019-04-10T08:21:09.188Z,43.00
2019-04-10T08:23:38.408Z,40.93
2019-04-10T08:26:08.085Z,40.97
2019-04-10T08:28:37.446Z,43.60
2019-04-10T08:31:07.021Z,42.33
2019-04-10T08:33:36.775Z,42.30
2019-04-10T08:36:06.032Z,41.63
2019-04-10T08:38:35.603Z,43.43
2019-04-10T08:41:05.449Z,45.33
2019-04-10T08:43:34.791Z,40.77
2019-04-10T08:46:05.319Z,42.50
2019-04-10T08:48:34.909Z,45.57
2019-04-10T08:51:04.197Z,40.27
2019-04-10T08:53:36.106Z,44.27
2019-04-10T08:56:04.919Z,42.60
2019-04-10T08:58:34.977Z,39.40
2019-04-10T09:01:05.152Z,42.90
2019-04-10T09:03:35.029Z,40.63
2019-04-10T09:06:07.241Z,41.43
2019-04-10T09:08:37.180Z,39.27
2019-04-10T09:11:07.143Z,38.57
2019-04-10T09:13:36.930Z,39.50
2019-04-10T09:16:06.784Z,40.00
2019-04-10T09:18:37.192Z,41.60
2019-04-10T09:21:07.278Z,40.50
2019-04-10T09:23:44.756Z,42.60
2019-04-10T09:26:08.057Z,42.97
2019-04-10T09:28:38.333Z,44.43
2019-04-10T09:31:09.234Z,45.77
2019-04-10T09:33:39.123Z,42.20
2019-04-10T09:36:09.047Z,43.57
2019-04-10T09:38:38.963Z,42.30
2019-04-10T09:41:11.938Z,41.87
2019-04-10T09:43:42.132Z,46.17
2019-04-10T09:46:12.730Z,43.83
2019-04-10T09:48:42.343Z,43.40
2019-04-10T09:51:11.763Z,52.63
2019-04-10T09:53:43.702Z,43.83
2019-04-10T09:56:13.632Z,43.93
2019-04-10T09:58:43.177Z,43.47
2019-04-10T10:01:16.318Z,42.60
2019-04-10T10:03:46.552Z,42.70
2019-04-10T10:06:25.353Z,43.63
2019-04-10T10:08:47.901Z,43.00
2019-04-10T10:11:18.065Z,42.60
2019-04-10T10:13:48.252Z,42.97
2019-04-10T10:16:18.837Z,44.13
2019-04-10T10:18:48.544Z,45.03
2019-04-10T10:21:18.701Z,45.90
2019-04-10T10:23:48.370Z,43.03
2019-04-10T10:26:17.650Z,40.03
2019-04-10T10:28:47.460Z,43.87
2019-04-10T10:31:16.869Z,43.03
2019-04-10T10:33:46.539Z,44.83
2019-04-10T10:36:19.960Z,45.00
2019-04-10T10:39:01.737Z,42.97
2019-04-10T10:41:20.744Z,45.80
2019-04-10T10:43:50.916Z,44.13
2019-04-10T10:46:20.432Z,43.93
2019-04-10T10:48:49.676Z,47.47
2019-04-10T10:51:18.950Z,45.63
2019-04-10T10:53:48.334Z,45.27
2019-04-10T10:56:18.267Z,43.77
2019-04-10T10:58:48.146Z,45.83
2019-04-10T11:01:18.033Z,48.37
2019-04-10T11:03:48.702Z,46.53
2019-04-10T11:06:19.229Z,37.17
2019-04-10T11:08:48.801Z,38.80
2019-04-10T11:11:18.478Z,44.93
2019-04-10T11:13:48.463Z,45.10
2019-04-10T11:16:18.158Z,47.47
2019-04-10T11:18:48.466Z,45.63
2019-04-10T11:21:20.741Z,43.63
2019-04-10T11:23:50.876Z,43.80
2019-04-10T11:26:23.779Z,42.70
2019-04-10T11:28:53.064Z,47.20
2019-04-10T11:31:23.797Z,46.53
2019-04-10T11:33:56.800Z,46.50
2019-04-10T11:36:28.138Z,44.07
2019-04-10T11:39:09.698Z,44.90
2019-04-10T11:41:30.874Z,48.47
2019-04-10T11:44:00.310Z,46.63
2019-04-10T11:46:32.611Z,47.80
2019-04-10T11:49:02.548Z,47.07
2019-04-10T11:51:35.668Z,46.20
2019-04-10T11:54:05.356Z,46.30
2019-04-10T11:56:36.220Z,42.63
2019-04-10T11:59:07.662Z,43.03
2019-04-10T12:01:38.637Z,47.87
2019-04-10T12:04:10.795Z,41.17
2019-04-10T12:06:43.085Z,43.53
2019-04-10T12:09:56.918Z,46.23
2019-04-10T12:11:50.171Z,47.33
2019-04-10T12:14:19.548Z,45.90
2019-04-10T12:16:49.489Z,44.47
2019-04-10T12:19:19.373Z,47.30
2019-04-10T12:21:48.789Z,44.67
2019-04-10T12:24:18.441Z,44.30
2019-04-10T12:26:47.981Z,46.73
2019-04-10T12:29:18.273Z,45.40
2019-04-10T12:31:48.232Z,46.77
2019-04-10T12:34:18.228Z,46.17
2019-04-10T12:36:51.851Z,45.37
2019-04-10T12:39:22.572Z,45.67
2019-04-10T12:41:52.491Z,47.47
2019-04-10T12:44:21.743Z,50.00
2019-04-10T12:46:51.208Z,46.00
2019-04-10T12:49:20.556Z,47.63
2019-04-10T12:51:49.987Z,47.37
2019-04-10T12:54:21.656Z,49.13
2019-04-10T12:56:52.620Z,46.50
2019-04-10T12:59:23.695Z,47.80
2019-04-10T13:01:54.042Z,46.17
2019-04-10T13:04:24.696Z,47.60
2019-04-10T13:06:58.982Z,47.60
2019-04-10T13:09:31.760Z,45.40
2019-04-10T13:12:02.811Z,45.40
2019-04-10T13:14:34.920Z,46.73
2019-04-10T13:17:04.727Z,50.63
2019-04-10T13:19:35.720Z,46.07
2019-04-10T13:22:05.149Z,50.30
2019-04-10T13:24:35.337Z,49.50
2019-04-10T13:27:06.632Z,44.87
2019-04-10T13:29:36.392Z,49.67
2019-04-10T13:32:09.844Z,52.47
2019-04-10T13:34:39.650Z,49.50
2019-04-10T13:37:12.334Z,49.23
2019-04-10T13:39:41.974Z,48.63
2019-04-10T13:42:13.481Z,46.87
2019-04-10T13:44:42.746Z,47.83
2019-04-10T13:47:12.015Z,50.20
2019-04-10T13:49:42.049Z,50.60
2019-04-10T13:52:11.989Z,47.47
2019-04-10T13:54:42.911Z,46.30
2019-04-10T13:57:16.235Z,47.77
2019-04-10T13:59:46.939Z,46.37
2019-04-10T14:02:27.809Z,47.50
2019-04-10T14:04:59.803Z,53.40
2019-04-10T14:07:28.994Z,48.13
2019-04-10T14:10:00.714Z,49.53
2019-04-10T14:12:31.119Z,47.07
2019-04-10T14:15:01.520Z,50.73
2019-04-10T14:17:30.980Z,49.60
2019-04-10T14:20:00.251Z,47.77
2019-04-10T14:22:31.522Z,51.70
2019-04-10T14:25:04.873Z,48.00
2019-04-10T14:27:36.244Z,48.83
2019-04-10T14:30:13.880Z,48.67
2019-04-10T14:32:43.804Z,48.20
2019-04-10T14:35:13.356Z,49.13
2019-04-10T14:37:43.488Z,49.80
2019-04-10T14:40:15.820Z,49.83
2019-04-10T14:42:45.378Z,49.30
2019-04-10T14:45:14.654Z,51.30
2019-04-10T14:47:45.578Z,53.42
2019-04-10T14:50:15.715Z,50.30
2019-04-10T14:52:47.441Z,50.33
2019-04-10T14:55:20.338Z,49.37
2019-04-10T14:57:53.124Z,52.13
2019-04-10T15:00:42.210Z,51.20
2019-04-10T15:03:11.939Z,50.23
2019-04-10T15:05:50.001Z,49.90
2019-04-10T15:08:15.779Z,51.00
2019-04-10T15:10:45.506Z,52.77
2019-04-10T15:13:21.122Z,43.97
2019-04-10T15:15:50.377Z,45.47
2019-04-10T15:18:22.462Z,48.73
2019-04-10T15:20:52.752Z,53.53
2019-04-10T15:23:22.177Z,51.43
2019-04-10T15:25:53.380Z,50.90
2019-04-10T15:28:25.325Z,50.17
2019-04-10T15:30:55.378Z,51.80
2019-04-10T15:33:25.081Z,50.60
2019-04-10T15:35:55.372Z,51.83
2019-04-10T15:38:28.482Z,59.30
2019-04-10T15:40:58.759Z,51.60
2019-04-10T15:43:30.617Z,54.00
2019-04-10T15:46:00.183Z,55.30
2019-04-10T15:48:29.905Z,56.93
2019-04-10T15:51:00.096Z,53.90
2019-04-10T15:53:29.903Z,52.67
2019-04-10T15:55:59.646Z,54.20
2019-04-10T15:58:33.261Z,55.70
2019-04-10T16:01:05.548Z,55.20
2019-04-10T16:03:36.725Z,56.00
2019-04-10T16:06:06.188Z,55.00
2019-04-10T16:08:36.546Z,56.30
2019-04-10T16:11:23.739Z,54.67
2019-04-10T16:13:56.941Z,56.90
2019-04-10T16:16:48.772Z,63.07
2019-04-10T16:19:40.886Z,57.37
2019-04-10T16:22:44.782Z,59.13
2019-04-10T16:25:27.799Z,65.13
2019-04-10T16:28:04.226Z,61.70
2019-04-10T16:30:34.836Z,63.23
2019-04-10T16:33:04.942Z,63.17
2019-04-10T16:35:36.577Z,63.77
2019-04-10T16:38:06.867Z,63.70
2019-04-10T16:40:38.173Z,64.87
2019-04-10T16:43:09.588Z,68.17
2019-04-10T16:45:40.447Z,69.00
2019-04-10T16:48:10.648Z,68.70
2019-04-10T16:50:40.280Z,64.17
2019-04-10T16:53:09.860Z,63.17
2019-04-10T16:55:39.581Z,68.67
2019-04-10T16:58:11.573Z,65.50
2019-04-10T17:00:40.274Z,78.70
2019-04-10T17:03:10.030Z,65.90
2019-04-10T17:05:39.785Z,63.60
2019-04-10T17:08:12.009Z,62.97
2019-04-10T17:10:44.774Z,66.13
2019-04-10T17:13:14.400Z,60.83
2019-04-10T17:15:45.299Z,67.30
2019-04-10T17:18:14.930Z,62.27
2019-04-10T17:20:44.811Z,69.77
2019-04-10T17:23:14.204Z,62.13
2019-04-10T17:25:44.425Z,66.73
2019-04-10T17:28:14.545Z,64.80
2019-04-10T17:30:44.223Z,63.40
2019-04-10T17:33:13.918Z,61.33
2019-04-10T17:35:43.497Z,58.93
2019-04-10T17:38:14.111Z,61.40
2019-04-10T17:40:49.923Z,65.40
2019-04-10T17:43:14.897Z,60.80
2019-04-10T17:45:47.120Z,64.73
2019-04-10T17:48:19.890Z,64.97
2019-04-10T17:50:51.290Z,59.83
2019-04-10T17:53:25.096Z,60.23
2019-04-10T17:55:56.440Z,63.97
2019-04-10T17:58:25.762Z,62.17
2019-04-10T18:00:59.858Z,61.00
2019-04-10T18:03:40.493Z,62.57
2019-04-10T18:06:01.126Z,61.63
2019-04-10T18:08:33.194Z,61.00
2019-04-10T18:11:03.687Z,65.33
2019-04-10T18:13:34.158Z,66.00
2019-04-10T18:16:04.856Z,67.70
2019-04-10T18:18:34.111Z,71.60
2019-04-10T18:21:06.674Z,69.43
2019-04-10T18:23:36.332Z,69.03
2019-04-10T18:26:06.746Z,70.03
2019-04-10T18:28:39.155Z,76.73
2019-04-10T18:31:10.399Z,67.87
2019-04-10T18:33:40.234Z,70.93
2019-04-10T18:36:09.542Z,72.17
2019-04-10T18:38:38.797Z,71.50
2019-04-10T18:41:09.578Z,73.13
2019-04-10T18:43:38.951Z,73.23
2019-04-10T18:46:14.329Z,71.17
2019-04-10T18:48:39.155Z,76.47
2019-04-10T18:51:10.862Z,75.77
2019-04-10T18:53:42.358Z,80.73
2019-04-10T18:56:13.313Z,70.97
2019-04-10T18:58:48.167Z,79.77
2019-04-10T19:01:41.150Z,78.63
2019-04-10T19:04:16.145Z,82.17
2019-04-10T19:07:00.828Z,82.93
2019-04-10T19:09:32.527Z,77.87
2019-04-10T19:12:02.688Z,75.80
2019-04-10T19:14:36.246Z,77.17
2019-04-10T19:17:06.618Z,78.90
2019-04-10T19:19:40.374Z,83.10
2019-04-10T19:22:08.028Z,80.83
2019-04-10T19:24:38.746Z,82.53
2019-04-10T19:27:09.555Z,81.33
2019-04-10T19:29:38.976Z,84.67
2019-04-10T19:32:12.050Z,83.67
2019-04-10T19:34:42.315Z,83.07
2019-04-10T19:37:12.335Z,84.37
2019-04-10T19:39:42.508Z,88.53
2019-04-10T19:42:13.264Z,88.33
2019-04-10T19:44:45.563Z,80.93
2019-04-10T19:47:16.067Z,86.73
2019-04-10T19:49:46.859Z,84.63
2019-04-10T19:52:16.138Z,82.20
2019-04-10T19:54:47.379Z,84.23
2019-04-10T19:57:17.223Z,88.03
2019-04-10T19:59:46.783Z,86.90
2019-04-10T20:02:17.052Z,88.57
2019-04-10T20:04:48.501Z,92.83
2019-04-10T20:07:20.747Z,84.67
2019-04-10T20:09:52.782Z,84.57
2019-04-10T20:12:22.673Z,85.57
2019-04-10T20:14:53.246Z,88.80
2019-04-10T20:17:22.705Z,89.00
2019-04-10T20:19:55.170Z,91.10
2019-04-10T20:22:23.269Z,87.07
2019-04-10T20:24:53.487Z,85.83
2019-04-10T20:27:23.696Z,85.13
2019-04-10T20:29:55.236Z,84.30
2019-04-10T20:32:24.514Z,87.73
2019-04-10T20:34:55.886Z,84.97
2019-04-10T20:37:26.844Z,88.13
2019-04-10T20:39:59.495Z,82.37
2019-04-10T20:42:29.917Z,85.10
2019-04-10T20:45:01.945Z,85.00
2019-04-10T20:47:31.469Z,84.00
2019-04-10T20:50:03.728Z,88.93
2019-04-10T20:52:34.622Z,87.17
2019-04-10T20:55:11.144Z,84.37
2019-04-10T20:57:43.684Z,85.97
2019-04-10T21:00:28.205Z,85.30
2019-04-10T21:02:58.582Z,85.17
2019-04-10T21:05:33.862Z,86.10
2019-04-10T21:08:06.799Z,81.00
2019-04-10T21:10:36.041Z,85.27
2019-04-10T21:13:06.433Z,83.97
2019-04-10T21:15:36.044Z,81.53
2019-04-10T21:18:06.778Z,87.73
2019-04-10T21:20:36.597Z,83.87
2019-04-10T21:23:06.132Z,82.77
2019-04-10T21:25:35.368Z,83.73
2019-04-10T21:28:07.661Z,82.63
2019-04-10T21:30:54.515Z,83.20
2019-04-10T21:33:32.566Z,84.70
2019-04-10T21:36:02.043Z,86.40
2019-04-10T21:38:32.186Z,80.30
2019-04-10T21:41:02.687Z,84.40
2019-04-10T21:43:33.146Z,82.20
2019-04-10T21:46:03.703Z,80.63
2019-04-10T21:48:33.213Z,83.37
2019-04-10T21:51:02.620Z,81.93
2019-04-10T21:53:34.430Z,85.83
2019-04-10T21:56:08.453Z,81.00
2019-04-10T21:58:39.479Z,79.83
